createdAt,value
2023-04-18T00:01:59.510Z,100160.53
2023-04-18T00:04:28.187Z,100167.34
2023-04-18T00:06:56.228Z,100162.44
2023-04-18T00:09:24.698Z,100128.09
2023-04-18T00:11:53.399Z,100163.28
2023-04-18T00:14:21.238Z,100166.56
2023-04-18T00:37:09.407Z,100171.03
2023-04-18T00:39:38.116Z,100167.75
2023-04-18T00:42:06.292Z,100171.84
2023-04-18T00:44:34.131Z,100166.28
2023-04-18T00:47:02.314Z,100174.09
2023-04-18T00:49:30.554Z,100156.91
2023-04-18T00:51:59.632Z,100162.81
2023-04-18T00:54:29.064Z,100141.16
2023-04-18T01:19:20.908Z,100175.87
2023-04-18T01:21:49.679Z,100175.87
2023-04-18T01:24:18.117Z,100169.44
2023-04-18T01:26:49.408Z,100173.72
2023-04-18T01:29:17.660Z,100173.31
2023-04-18T01:31:46.225Z,100177.19
2023-04-18T01:34:18.196Z,100177.19
2023-04-18T01:36:46.939Z,100168.00
2023-04-18T01:57:24.050Z,100188.97
2023-04-18T01:59:52.995Z,100188.97
2023-04-18T02:02:21.105Z,100174.50
2023-04-18T02:04:49.326Z,100183.72
2023-04-18T02:07:17.219Z,100170.41
2023-04-18T02:09:45.243Z,100167.16
2023-04-18T02:12:13.535Z,100181.62
2023-04-18T02:14:41.505Z,100172.75
2023-04-18T02:37:04.350Z,100181.66
2023-04-18T02:39:33.747Z,100185.72
2023-04-18T02:42:01.826Z,100176.66
2023-04-18T02:44:29.781Z,100187.72
2023-04-18T02:46:57.929Z,100185.72
2023-04-18T02:49:26.239Z,100189.75
2023-04-18T02:51:57.564Z,100193.47
2023-04-18T02:54:25.815Z,100192.44
2023-04-18T02:56:54.669Z,100177.03
2023-04-18T03:17:04.458Z,100192.81
2023-04-18T03:19:34.806Z,100192.81
2023-04-18T03:22:04.074Z,100183.22
2023-04-18T03:24:32.876Z,100185.69
2023-04-18T03:27:01.535Z,100190.97
2023-04-18T03:29:29.486Z,100187.94
2023-04-18T03:31:57.481Z,100114.44
2023-04-18T03:34:25.958Z,100195.06
2023-04-18T03:37:04.505Z,100202.00
2023-04-18T03:57:02.745Z,100201.81
2023-04-18T03:59:32.811Z,100201.81
2023-04-18T04:02:01.263Z,100179.53
2023-04-18T04:04:29.533Z,100206.47
2023-04-18T04:06:58.276Z,100202.97
2023-04-18T04:09:26.444Z,100202.19
2023-04-18T04:11:54.645Z,100199.94
2023-04-18T04:14:23.394Z,100199.31
2023-04-18T04:17:04.862Z,100211.59
2023-04-18T04:35:08.496Z,100226.09
2023-04-18T04:37:37.292Z,100229.75
2023-04-18T04:40:09.296Z,100221.59
2023-04-18T04:42:41.244Z,100228.13
2023-04-18T04:45:10.627Z,100233.06
2023-04-18T04:47:38.949Z,100238.00
2023-04-18T04:50:11.780Z,100242.25
2023-04-18T04:52:40.501Z,100240.66
2023-04-18T05:08:37.166Z,100259.91
2023-04-18T05:13:32.006Z,100265.06
2023-04-18T05:16:00.252Z,100270.31
2023-04-18T05:28:32.469Z,100276.12
2023-04-18T05:38:29.889Z,100281.22
2023-04-18T05:41:00.514Z,100281.22
2023-04-18T05:43:28.864Z,100279.50
2023-04-18T05:45:57.847Z,100279.91
2023-04-18T05:48:26.812Z,100280.94
2023-04-18T05:50:54.806Z,100274.59
2023-04-18T05:53:22.815Z,100280.13
2023-04-18T05:55:51.240Z,100285.06
2023-04-18T05:58:19.485Z,100285.88
2023-04-18T06:00:50.257Z,100233.25
2023-04-18T06:03:18.717Z,100273.41
2023-04-18T06:05:46.959Z,100282.84
2023-04-18T06:08:16.016Z,100279.75
2023-04-18T06:10:47.625Z,100272.38
2023-04-18T06:13:15.669Z,100285.28
2023-04-18T06:15:43.708Z,100295.75
2023-04-18T06:18:12.108Z,100297.97
2023-04-18T06:20:40.420Z,100297.75
2023-04-18T06:23:09.007Z,100298.56
2023-04-18T06:25:37.783Z,100287.13
2023-04-18T06:28:05.843Z,100287.94
2023-04-18T06:30:34.003Z,100295.16
2023-04-18T06:33:02.347Z,100304.53
2023-04-18T06:35:31.298Z,100312.13
2023-04-18T06:38:01.462Z,100318.28
2023-04-18T06:40:30.101Z,100314.38
2023-04-18T06:42:58.407Z,100301.87
2023-04-18T06:45:26.454Z,100316.81
2023-04-18T06:47:54.881Z,100318.87
2023-04-18T06:50:23.009Z,100319.06
2023-04-18T06:52:51.242Z,100318.84
2023-04-18T07:03:20.693Z,100321.91
2023-04-18T07:05:50.619Z,100330.06
2023-04-18T07:08:20.128Z,100330.62
2023-04-18T07:13:48.670Z,100291.84
2023-04-18T07:18:43.454Z,100336.94
2023-04-18T07:43:39.040Z,100352.66
2023-04-18T07:46:08.254Z,100352.66
2023-04-18T07:48:36.889Z,100354.88
2023-04-18T07:51:05.160Z,100366.94
2023-04-18T07:53:33.374Z,100363.66
2023-04-18T07:56:01.923Z,100370.19
2023-04-18T07:58:30.042Z,100366.03
2023-04-18T08:00:58.728Z,100359.47
2023-04-18T08:03:28.080Z,100358.97
2023-04-18T08:05:56.815Z,100379.22
2023-04-18T08:08:24.890Z,100376.22
2023-04-18T08:10:53.596Z,100385.53
2023-04-18T08:13:21.697Z,100368.66
2023-04-18T08:15:49.734Z,100384.38
2023-04-18T08:18:18.031Z,100385.78
2023-04-18T08:20:46.124Z,100379.22
2023-04-18T08:28:39.262Z,100386.69
2023-04-18T08:31:13.570Z,100397.06
2023-04-18T08:33:42.765Z,100400.53
2023-04-18T08:36:12.198Z,100404.78
2023-04-18T08:38:40.190Z,100381.53
2023-04-18T08:41:09.938Z,100370.66
2023-04-18T08:43:38.451Z,100392.47
2023-04-18T08:46:06.870Z,100401.97
2023-04-18T08:48:36.914Z,100407.25
2023-04-18T08:51:05.580Z,100402.28
2023-04-18T08:53:36.089Z,100406.84
2023-04-18T08:56:05.684Z,100391.78
2023-04-18T08:58:35.015Z,100391.25
2023-04-18T09:01:03.499Z,100399.13
2023-04-18T09:03:38.195Z,100406.94
2023-04-18T09:06:19.338Z,100410.34
2023-04-18T09:09:05.964Z,100408.47
2023-04-18T09:11:44.032Z,100413.44
2023-04-18T09:14:26.777Z,100406.03
2023-04-18T09:16:59.129Z,100410.66
2023-04-18T09:19:29.290Z,100416.31
2023-04-18T09:25:06.442Z,100419.69
2023-04-18T09:48:52.557Z,100413.09
2023-04-18T09:51:23.116Z,100388.56
2023-04-18T09:53:53.343Z,100415.38
2023-04-18T09:56:34.248Z,100413.63
2023-04-18T09:59:10.130Z,100429.38
2023-04-18T10:01:41.336Z,100428.84
2023-04-18T10:04:12.372Z,100421.81
2023-04-18T10:06:42.309Z,100425.06
2023-04-18T10:09:11.128Z,100424.81
2023-04-18T10:11:39.742Z,100416.06
2023-04-18T10:14:11.954Z,100436.38
2023-04-18T10:16:41.346Z,100423.56
2023-04-18T10:19:27.666Z,100427.41
2023-04-18T10:22:01.647Z,100423.91
2023-04-18T10:24:56.440Z,100427.16
2023-04-18T10:30:41.033Z,100428.53
2023-04-18T10:36:22.882Z,100426.25
2023-04-18T10:39:01.242Z,100418.34
2023-04-18T10:41:30.932Z,100414.91
2023-04-18T10:44:16.628Z,100400.28
2023-04-18T11:04:25.620Z,100397.31
2023-04-18T11:14:42.839Z,100386.31
2023-04-18T11:22:31.470Z,100367.91
2023-04-18T11:25:08.492Z,100373.50
2023-04-18T11:30:23.949Z,100334.00
2023-04-18T11:41:05.796Z,100368.50
2023-04-18T11:43:34.536Z,100371.16
2023-04-18T11:46:02.949Z,100372.31
2023-04-18T11:48:45.495Z,100343.06
2023-04-18T11:51:40.043Z,100376.31
2023-04-18T11:54:40.142Z,100348.09
2023-04-18T11:57:24.033Z,100365.69
2023-04-18T12:00:00.227Z,100377.81
2023-04-18T12:02:41.034Z,100380.97
2023-04-18T12:05:11.126Z,100381.06
2023-04-18T12:07:41.370Z,100377.25
2023-04-18T12:10:26.292Z,100376.41
2023-04-18T12:12:56.366Z,100373.72
2023-04-18T12:15:28.255Z,100372.13
2023-04-18T12:18:05.085Z,100369.56
2023-04-18T12:23:32.254Z,100363.00
2023-04-18T12:37:39.868Z,100336.06
2023-04-18T13:03:17.551Z,100337.25
2023-04-18T13:05:48.932Z,100337.25
2023-04-18T13:08:18.236Z,100336.78
2023-04-18T13:10:47.749Z,100316.03
2023-04-18T13:13:58.293Z,100347.75
2023-04-18T13:17:31.409Z,100344.12
2023-04-18T13:20:44.917Z,100337.03
2023-04-18T13:23:16.090Z,100285.59
2023-04-18T13:25:44.464Z,100292.88
2023-04-18T13:28:13.180Z,100353.31
2023-04-18T13:30:41.853Z,100347.62
2023-04-18T13:33:10.812Z,100327.81
2023-04-18T13:35:38.810Z,100270.75
2023-04-18T13:38:09.500Z,100260.72
2023-04-18T13:40:38.949Z,100346.69
2023-04-18T13:43:07.690Z,100295.91
2023-04-18T13:45:35.732Z,100339.81
2023-04-18T13:48:04.100Z,100268.31
2023-04-18T13:50:32.836Z,100280.06
2023-04-18T13:55:27.596Z,100327.81
2023-04-18T14:00:57.854Z,100343.56
2023-04-18T14:03:27.239Z,100298.13
2023-04-18T14:05:55.192Z,100339.84
2023-04-18T14:08:23.017Z,100326.31
2023-04-18T14:10:51.369Z,100346.81
2023-04-18T14:13:19.186Z,100332.94
2023-04-18T14:15:47.133Z,100317.78
2023-04-18T14:18:15.549Z,100333.38
2023-04-18T14:20:43.711Z,100332.22
2023-04-18T14:23:11.769Z,100343.50
2023-04-18T14:25:39.862Z,100325.37
2023-04-18T14:28:12.177Z,100335.25
2023-04-18T14:30:41.094Z,100334.81
2023-04-18T14:36:22.134Z,100339.69
2023-04-18T14:58:32.413Z,100340.16
2023-04-18T15:01:01.100Z,100340.16
2023-04-18T15:03:29.258Z,100338.81
2023-04-18T15:05:57.441Z,100328.44
2023-04-18T15:08:25.792Z,100277.16
2023-04-18T15:10:53.646Z,100309.44
2023-04-18T15:13:21.521Z,100324.00
2023-04-18T15:15:53.837Z,100337.97
2023-04-18T15:18:22.281Z,100282.91
2023-04-18T15:20:51.839Z,100334.88
2023-04-18T15:23:20.067Z,100339.28
2023-04-18T15:25:48.014Z,100333.84
2023-04-18T15:28:18.194Z,100326.16
2023-04-18T15:30:46.802Z,100345.47
2023-04-18T15:36:12.502Z,100335.50
2023-04-18T15:53:24.797Z,100352.91
2023-04-18T15:55:54.032Z,100352.91
2023-04-18T15:58:27.848Z,100360.75
2023-04-18T16:00:57.528Z,100357.56
2023-04-18T16:03:26.131Z,100360.13
2023-04-18T16:05:54.071Z,100352.37
2023-04-18T16:08:22.004Z,100340.34
2023-04-18T16:10:52.592Z,100366.37
2023-04-18T16:13:20.496Z,100366.41
2023-04-18T16:15:48.373Z,100373.38
2023-04-18T16:23:48.875Z,100371.78
2023-04-18T16:46:32.390Z,100375.50
2023-04-18T16:49:01.753Z,100375.50
2023-04-18T16:51:31.413Z,100383.75
2023-04-18T16:53:59.375Z,100377.44
2023-04-18T16:56:27.590Z,100387.25
2023-04-18T16:58:55.603Z,100377.62
2023-04-18T17:01:23.516Z,100387.06
2023-04-18T17:03:52.042Z,100365.53
2023-04-18T17:06:19.892Z,100389.50
2023-04-18T17:08:49.045Z,100385.44
2023-04-18T17:11:17.462Z,100390.97
2023-04-18T17:16:28.234Z,100361.47
2023-04-18T17:32:27.225Z,100384.16
2023-04-18T17:45:11.335Z,100402.03
2023-04-18T17:47:41.067Z,100402.03
2023-04-18T17:50:09.574Z,100404.22
2023-04-18T17:52:37.761Z,100408.06
2023-04-18T17:55:07.136Z,100405.03
2023-04-18T17:57:35.600Z,100369.16
2023-04-18T18:00:10.022Z,100413.81
2023-04-18T18:02:42.437Z,100421.38
2023-04-18T18:23:09.382Z,100437.19
2023-04-18T18:25:38.561Z,100437.19
2023-04-18T18:28:07.434Z,100444.69
2023-04-18T18:30:37.560Z,100447.53
2023-04-18T18:33:06.021Z,100433.13
2023-04-18T18:35:34.202Z,100433.94
2023-04-18T18:38:02.140Z,100449.88
2023-04-18T18:40:30.773Z,100437.31
2023-04-18T18:42:59.523Z,100431.38
2023-04-18T18:45:27.714Z,100453.69
2023-04-18T19:08:22.126Z,100462.22
2023-04-18T19:10:51.490Z,100462.22
2023-04-18T19:13:22.968Z,100461.09
2023-04-18T19:15:51.900Z,100453.63
2023-04-18T19:18:21.478Z,100465.25
2023-04-18T19:20:50.713Z,100465.75
2023-04-18T19:23:19.548Z,100472.13
2023-04-18T19:34:04.105Z,100468.47
2023-04-18T19:36:32.955Z,100468.47
2023-04-18T19:39:01.511Z,100477.41
2023-04-18T19:41:29.701Z,100481.16
2023-04-18T19:44:01.290Z,100480.78
2023-04-18T19:46:29.214Z,100486.41
2023-04-18T19:48:57.796Z,100487.47
2023-04-18T19:54:11.077Z,100498.09
2023-04-18T20:14:35.355Z,100516.09
2023-04-18T20:17:04.168Z,100516.09
2023-04-18T20:19:32.466Z,100509.84
2023-04-18T20:22:01.105Z,100516.69
2023-04-18T20:24:33.854Z,100523.50
2023-04-18T20:27:03.104Z,100516.38
2023-04-18T20:29:31.456Z,100520.00
2023-04-18T20:31:59.831Z,100482.44
2023-04-18T20:52:14.522Z,100509.31
2023-04-18T20:54:43.264Z,100509.31
2023-04-18T20:57:11.159Z,100515.72
2023-04-18T20:59:39.132Z,100516.72
2023-04-18T21:02:08.455Z,100497.09
2023-04-18T21:04:36.585Z,100504.28
2023-04-18T21:07:04.522Z,100492.16
2023-04-18T21:09:36.707Z,100504.91
2023-04-18T21:27:16.468Z,100494.09
2023-04-18T21:29:45.013Z,100494.09
2023-04-18T21:32:13.211Z,100489.56
2023-04-18T21:34:41.075Z,100493.88
2023-04-18T21:37:09.282Z,100491.94
2023-04-18T21:39:38.309Z,100491.25
2023-04-18T21:42:06.277Z,100478.50
2023-04-18T21:44:35.340Z,100493.47
2023-04-18T21:47:03.378Z,100492.84
2023-04-18T22:07:29.656Z,100487.34
2023-04-18T22:09:59.962Z,100487.34
2023-04-18T22:12:27.952Z,100490.97
2023-04-18T22:14:56.874Z,100456.91
2023-04-18T22:17:26.169Z,100493.16
2023-04-18T22:19:56.255Z,100493.44
2023-04-18T22:22:24.135Z,100463.03
2023-04-18T22:24:52.403Z,100489.06
2023-04-18T22:45:06.165Z,100470.87
2023-04-18T22:47:34.851Z,100470.87
2023-04-18T22:50:02.923Z,100482.25
2023-04-18T22:52:31.161Z,100469.81
2023-04-18T22:54:59.463Z,100473.09
2023-04-18T22:57:27.476Z,100452.44
2023-04-18T22:59:55.407Z,100425.00
2023-04-18T23:02:23.884Z,100448.44
2023-04-18T23:23:08.820Z,100444.69
2023-04-18T23:25:37.480Z,100444.69
2023-04-18T23:28:05.363Z,100447.91
2023-04-18T23:30:36.166Z,100444.84
2023-04-18T23:33:05.096Z,100419.81
2023-04-18T23:35:33.091Z,100434.59
2023-04-18T23:38:00.966Z,100434.72
2023-04-18T23:40:29.217Z,100417.94
